Terminal Aerodrome Forecast
Issued by NWS

Home | Current Version | Previous Version | Text Only | Print | Product List | Glossary On
Versions: 1 2 3 4 5 6 7 8 9 10 11 12 13 14 15 16 17 18
176
FTUS46 KLOX 241724
TAFWJF
TAF
KWJF 241724Z 2418/2518 23020G25KT P6SM SKC
     FM242000 23025G35KT P6SM SCT050 BKN080
     FM250300 23015KT P6SM FEW060=

USA.gov is the U.S. government's official web portal to all federal, state and local government web resources and services.